sensor_id;sensor_type;location;lat;lon;timestamp;pressure;altitude;pressure_sealevel;temperature;humidity
57900;BME280;60605;53.716;19.940;2024-03-29T00:03:32;98401.27;;;8.18;100.00
57900;BME280;60605;53.716;19.940;2024-03-29T00:08:35;98409.51;;;8.19;100.00
57900;BME280;60605;53.716;19.940;2024-03-29T00:13:38;98412.20;;;8.22;100.00
57900;BME280;60605;53.716;19.940;2024-03-29T00:18:41;98422.05;;;8.26;100.00
57900;BME280;60605;53.716;19.940;2024-03-29T00:23:45;98431.30;;;8.29;100.00
57900;BME280;60605;53.716;19.940;2024-03-29T00:28:48;98441.58;;;8.32;100.00
57900;BME280;60605;53.716;19.940;2024-03-29T00:33:51;98439.92;;;8.34;100.00
57900;BME280;60605;53.716;19.940;2024-03-29T00:38:54;98443.42;;;8.34;100.00
57900;BME280;60605;53.716;19.940;2024-03-29T00:43:57;98459.90;;;8.34;100.00
57900;BME280;60605;53.716;19.940;2024-03-29T00:49:01;98471.30;;;8.30;100.00
57900;BME280;60605;53.716;19.940;2024-03-29T00:54:04;98480.77;;;8.26;100.00
57900;BME280;60605;53.716;19.940;2024-03-29T00:59:07;98492.91;;;8.22;100.00
57900;BME280;60605;53.716;19.940;2024-03-29T01:04:11;98506.39;;;8.23;100.00
57900;BME280;60605;53.716;19.940;2024-03-29T01:09:14;98511.17;;;8.24;100.00
57900;BME280;60605;53.716;19.940;2024-03-29T01:14:17;98520.88;;;8.25;100.00
57900;BME280;60605;53.716;19.940;2024-03-29T01:19:20;98530.48;;;8.23;100.00
57900;BME280;60605;53.716;19.940;2024-03-29T01:24:23;98537.30;;;8.20;100.00
57900;BME280;60605;53.716;19.940;2024-03-29T01:29:27;98545.73;;;8.15;100.00
57900;BME280;60605;53.716;19.940;2024-03-29T01:34:30;98557.38;;;8.06;100.00
57900;BME280;60605;53.716;19.940;2024-03-29T01:39:33;98570.20;;;7.96;100.00
57900;BME280;60605;53.716;19.940;2024-03-29T01:44:37;98571.70;;;7.86;100.00
57900;BME280;60605;53.716;19.940;2024-03-29T01:49:40;98578.85;;;7.78;100.00
57900;BME280;60605;53.716;19.940;2024-03-29T01:54:43;98588.45;;;7.77;100.00
57900;BME280;60605;53.716;19.940;2024-03-29T01:59:47;98599.86;;;7.78;100.00
57900;BME280;60605;53.716;19.940;2024-03-29T02:04:50;98618.25;;;7.79;100.00
57900;BME280;60605;53.716;19.940;2024-03-29T02:09:54;98629.92;;;7.79;100.00
57900;BME280;60605;53.716;19.940;2024-03-29T02:14:57;98645.03;;;7.82;100.00
57900;BME280;60605;53.716;19.940;2024-03-29T02:20:02;98657.30;;;7.85;100.00
57900;BME280;60605;53.716;19.940;2024-03-29T02:25:06;98665.92;;;7.87;100.00
57900;BME280;60605;53.716;19.940;2024-03-29T02:30:13;98673.42;;;7.87;100.00
57900;BME280;60605;53.716;19.940;2024-03-29T02:35:17;98676.88;;;7.82;100.00
57900;BME280;60605;53.716;19.940;2024-03-29T02:40:20;98684.02;;;7.76;100.00
57900;BME280;60605;53.716;19.940;2024-03-29T02:45:23;98692.04;;;7.69;100.00
57900;BME280;60605;53.716;19.940;2024-03-29T02:50:26;98703.64;;;7.62;100.00
57900;BME280;60605;53.716;19.940;2024-03-29T02:55:30;98721.44;;;7.56;100.00
57900;BME280;60605;53.716;19.940;2024-03-29T03:00:33;98734.08;;;7.46;99.88
57900;BME280;60605;53.716;19.940;2024-03-29T03:05:38;98747.43;;;7.33;99.83
57900;BME280;60605;53.716;19.940;2024-03-29T03:10:47;98757.81;;;7.22;99.97
57900;BME280;60605;53.716;19.940;2024-03-29T03:16:02;98773.84;;;7.08;99.96
57900;BME280;60605;53.716;19.940;2024-03-29T03:21:05;98788.23;;;6.92;99.90
57900;BME280;60605;53.716;19.940;2024-03-29T03:26:08;98807.23;;;6.77;100.00
57900;BME280;60605;53.716;19.940;2024-03-29T03:31:12;98818.48;;;6.64;100.00
57900;BME280;60605;53.716;19.940;2024-03-29T03:36:15;98832.34;;;6.49;100.00
57900;BME280;60605;53.716;19.940;2024-03-29T03:41:18;98845.50;;;6.35;100.00
57900;BME280;60605;53.716;19.940;2024-03-29T03:46:21;98851.98;;;6.22;100.00
57900;BME280;60605;53.716;19.940;2024-03-29T03:51:24;98858.64;;;6.10;100.00
57900;BME280;60605;53.716;19.940;2024-03-29T03:56:28;98866.04;;;5.99;100.00
57900;BME280;60605;53.716;19.940;2024-03-29T04:01:31;98869.40;;;5.87;100.00
57900;BME280;60605;53.716;19.940;2024-03-29T04:06:34;98874.17;;;5.76;100.00
57900;BME280;60605;53.716;19.940;2024-03-29T04:11:37;98874.11;;;5.67;100.00
57900;BME280;60605;53.716;19.940;2024-03-29T04:16:40;98875.64;;;5.59;100.00
57900;BME280;60605;53.716;19.940;2024-03-29T04:21:43;98876.01;;;5.52;100.00
57900;BME280;60605;53.716;19.940;2024-03-29T04:26:46;98886.86;;;5.44;100.00
57900;BME280;60605;53.716;19.940;2024-03-29T04:31:50;98887.73;;;5.35;100.00
57900;BME280;60605;53.716;19.940;2024-03-29T04:36:53;98890.58;;;5.34;100.00
57900;BME280;60605;53.716;19.940;2024-03-29T04:41:56;98887.69;;;5.36;100.00
57900;BME280;60605;53.716;19.940;2024-03-29T04:46:59;98889.80;;;5.41;100.00
57900;BME280;60605;53.716;19.940;2024-03-29T04:52:03;98884.86;;;5.50;100.00
57900;BME280;60605;53.716;19.940;2024-03-29T04:57:07;98889.19;;;5.58;100.00
57900;BME280;60605;53.716;19.940;2024-03-29T05:02:10;98885.63;;;5.67;100.00
57900;BME280;60605;53.716;19.940;2024-03-29T05:07:14;98888.29;;;5.77;100.00
57900;BME280;60605;53.716;19.940;2024-03-29T05:12:17;98891.16;;;5.88;100.00
57900;BME280;60605;53.716;19.940;2024-03-29T05:17:20;98892.72;;;6.01;100.00
57900;BME280;60605;53.716;19.940;2024-03-29T05:22:28;98898.48;;;6.40;100.00
57900;BME280;60605;53.716;19.940;2024-03-29T05:27:32;98904.42;;;7.10;100.00
57900;BME280;60605;53.716;19.940;2024-03-29T05:32:39;98914.80;;;8.07;100.00
57900;BME280;60605;53.716;19.940;2024-03-29T05:37:43;98916.08;;;9.75;100.00
57900;BME280;60605;53.716;19.940;2024-03-29T05:42:55;98908.88;;;12.04;93.92
57900;BME280;60605;53.716;19.940;2024-03-29T05:47:59;98914.06;;;14.04;84.88
57900;BME280;60605;53.716;19.940;2024-03-29T05:53:02;98918.23;;;15.94;79.43
57900;BME280;60605;53.716;19.940;2024-03-29T05:58:09;98918.82;;;17.65;70.69
57900;BME280;60605;53.716;19.940;2024-03-29T06:03:13;98921.40;;;19.03;65.29
57900;BME280;60605;53.716;19.940;2024-03-29T06:08:16;98925.17;;;20.25;60.08
57900;BME280;60605;53.716;19.940;2024-03-29T06:13:19;98925.99;;;21.31;56.34
57900;BME280;60605;53.716;19.940;2024-03-29T06:18:41;98936.23;;;22.37;53.73
57900;BME280;60605;53.716;19.940;2024-03-29T06:23:45;98947.98;;;23.47;50.59
57900;BME280;60605;53.716;19.940;2024-03-29T06:28:48;98955.83;;;24.55;47.72
57900;BME280;60605;53.716;19.940;2024-03-29T06:33:51;98959.99;;;25.24;43.11
57900;BME280;60605;53.716;19.940;2024-03-29T06:38:54;98971.15;;;25.79;41.66
57900;BME280;60605;53.716;19.940;2024-03-29T06:43:57;98965.08;;;26.37;39.40
57900;BME280;60605;53.716;19.940;2024-03-29T06:49:00;98963.85;;;26.56;36.90
57900;BME280;60605;53.716;19.940;2024-03-29T06:54:04;98978.13;;;26.97;36.73
57900;BME280;60605;53.716;19.940;2024-03-29T06:59:07;98979.88;;;27.35;35.18
57900;BME280;60605;53.716;19.940;2024-03-29T07:04:11;98981.29;;;27.78;34.89
57900;BME280;60605;53.716;19.940;2024-03-29T07:09:14;98988.89;;;28.65;34.45
57900;BME280;60605;53.716;19.940;2024-03-29T07:14:18;99004.69;;;29.37;32.73
57900;BME280;60605;53.716;19.940;2024-03-29T07:19:22;99009.79;;;29.86;31.53
57900;BME280;60605;53.716;19.940;2024-03-29T07:24:26;99011.85;;;30.17;30.48
57900;BME280;60605;53.716;19.940;2024-03-29T07:29:30;99014.88;;;30.51;30.25
57900;BME280;60605;53.716;19.940;2024-03-29T07:34:36;99020.18;;;30.81;30.00
57900;BME280;60605;53.716;19.940;2024-03-29T07:39:42;99028.27;;;31.37;29.97
57900;BME280;60605;53.716;19.940;2024-03-29T07:44:45;99051.11;;;32.06;29.26
57900;BME280;60605;53.716;19.940;2024-03-29T07:49:48;99067.77;;;32.59;28.22
57900;BME280;60605;53.716;19.940;2024-03-29T07:54:51;99064.29;;;33.01;28.00
57900;BME280;60605;53.716;19.940;2024-03-29T07:59:54;99069.81;;;33.17;26.67
57900;BME280;60605;53.716;19.940;2024-03-29T08:04:57;99068.52;;;33.31;26.89
57900;BME280;60605;53.716;19.940;2024-03-29T08:10:01;99062.30;;;33.84;26.62
57900;BME280;60605;53.716;19.940;2024-03-29T08:15:05;99062.54;;;34.47;25.90
57900;BME280;60605;53.716;19.940;2024-03-29T08:20:08;99062.20;;;34.80;24.99
57900;BME280;60605;53.716;19.940;2024-03-29T08:25:11;99068.79;;;35.20;24.86
57900;BME280;60605;53.716;19.940;2024-03-29T08:30:14;99079.23;;;35.44;24.17
57900;BME280;60605;53.716;19.940;2024-03-29T08:35:18;99083.92;;;35.49;24.28
57900;BME280;60605;53.716;19.940;2024-03-29T08:40:23;99093.63;;;35.53;24.25
57900;BME280;60605;53.716;19.940;2024-03-29T08:45:26;99102.71;;;35.59;24.06
57900;BME280;60605;53.716;19.940;2024-03-29T08:50:30;99106.08;;;35.48;23.52
57900;BME280;60605;53.716;19.940;2024-03-29T08:55:33;99112.95;;;35.52;23.42
57900;BME280;60605;53.716;19.940;2024-03-29T09:00:37;99117.39;;;35.77;23.24
57900;BME280;60605;53.716;19.940;2024-03-29T09:05:40;99114.61;;;35.78;22.68
57900;BME280;60605;53.716;19.940;2024-03-29T09:10:44;99120.45;;;35.80;22.90
57900;BME280;60605;53.716;19.940;2024-03-29T09:15:48;99117.49;;;35.98;22.95
57900;BME280;60605;53.716;19.940;2024-03-29T09:20:58;99117.63;;;35.95;22.73
57900;BME280;60605;53.716;19.940;2024-03-29T09:26:04;99119.79;;;35.58;23.18
57900;BME280;60605;53.716;19.940;2024-03-29T09:31:08;99122.55;;;34.54;23.66
57900;BME280;60605;53.716;19.940;2024-03-29T09:36:11;99127.89;;;33.99;23.86
57900;BME280;60605;53.716;19.940;2024-03-29T09:41:16;99131.53;;;33.17;24.81
57900;BME280;60605;53.716;19.940;2024-03-29T09:46:23;99128.68;;;33.50;23.95
57900;BME280;60605;53.716;19.940;2024-03-29T09:51:27;99120.68;;;33.70;24.52
57900;BME280;60605;53.716;19.940;2024-03-29T09:56:30;99119.14;;;34.06;23.75
57900;BME280;60605;53.716;19.940;2024-03-29T10:01:34;99122.33;;;34.01;23.87
57900;BME280;60605;53.716;19.940;2024-03-29T10:06:38;99123.25;;;33.97;24.06
57900;BME280;60605;53.716;19.940;2024-03-29T10:11:42;99129.40;;;32.88;24.60
57900;BME280;60605;53.716;19.940;2024-03-29T10:16:46;99137.61;;;31.38;25.75
57900;BME280;60605;53.716;19.940;2024-03-29T10:21:49;99148.93;;;29.86;27.48
57900;BME280;60605;53.716;19.940;2024-03-29T10:26:52;99154.05;;;27.72;29.51
57900;BME280;60605;53.716;19.940;2024-03-29T10:31:56;99156.71;;;25.45;32.01
57900;BME280;60605;53.716;19.940;2024-03-29T10:37:02;99156.48;;;23.80;34.08
57900;BME280;60605;53.716;19.940;2024-03-29T10:42:06;99148.73;;;22.56;36.38
57900;BME280;60605;53.716;19.940;2024-03-29T10:47:13;99137.10;;;21.73;37.91
57900;BME280;60605;53.716;19.940;2024-03-29T10:52:21;99135.49;;;20.99;38.85
57900;BME280;60605;53.716;19.940;2024-03-29T10:57:25;99137.27;;;20.29;40.41
57900;BME280;60605;53.716;19.940;2024-03-29T11:07:53;99160.69;;;19.30;42.68
57900;BME280;60605;53.716;19.940;2024-03-29T11:18:28;99168.16;;;19.10;43.83
57900;BME280;60605;53.716;19.940;2024-03-29T11:23:32;99162.38;;;19.09;43.37
57900;BME280;60605;53.716;19.940;2024-03-29T11:28:36;99162.88;;;19.07;43.81
57900;BME280;60605;53.716;19.940;2024-03-29T11:38:48;99159.45;;;18.90;44.25
57900;BME280;60605;53.716;19.940;2024-03-29T11:43:51;99153.54;;;19.05;44.22
57900;BME280;60605;53.716;19.940;2024-03-29T11:48:55;99158.65;;;19.07;44.29
57900;BME280;60605;53.716;19.940;2024-03-29T11:54:00;99171.56;;;19.28;44.38
57900;BME280;60605;53.716;19.940;2024-03-29T11:59:03;99159.73;;;19.33;43.34
57900;BME280;60605;53.716;19.940;2024-03-29T12:04:07;99144.20;;;19.11;42.89
57900;BME280;60605;53.716;19.940;2024-03-29T12:09:10;99150.45;;;18.70;43.14
57900;BME280;60605;53.716;19.940;2024-03-29T12:14:15;99147.75;;;18.27;44.17
57900;BME280;60605;53.716;19.940;2024-03-29T12:19:25;99141.55;;;18.05;45.54
57900;BME280;60605;53.716;19.940;2024-03-29T12:24:30;99153.83;;;17.92;45.73
57900;BME280;60605;53.716;19.940;2024-03-29T12:29:34;99158.40;;;17.75;46.20
57900;BME280;60605;53.716;19.940;2024-03-29T12:34:37;99158.34;;;17.57;45.92
57900;BME280;60605;53.716;19.940;2024-03-29T12:39:41;99164.55;;;17.45;46.69
57900;BME280;60605;53.716;19.940;2024-03-29T12:44:45;99162.05;;;17.44;46.10
57900;BME280;60605;53.716;19.940;2024-03-29T12:49:48;99169.52;;;17.39;46.71
57900;BME280;60605;53.716;19.940;2024-03-29T12:54:51;99180.70;;;17.45;47.55
57900;BME280;60605;53.716;19.940;2024-03-29T12:59:55;99186.28;;;17.47;47.09
57900;BME280;60605;53.716;19.940;2024-03-29T13:04:58;99184.23;;;17.38;46.77
57900;BME280;60605;53.716;19.940;2024-03-29T13:10:03;99175.05;;;17.33;46.76
57900;BME280;60605;53.716;19.940;2024-03-29T13:15:22;99177.29;;;17.35;47.44
57900;BME280;60605;53.716;19.940;2024-03-29T13:20:29;99195.45;;;17.39;46.81
57900;BME280;60605;53.716;19.940;2024-03-29T13:25:33;99201.79;;;17.37;46.38
57900;BME280;60605;53.716;19.940;2024-03-29T13:30:36;99197.05;;;17.43;47.07
57900;BME280;60605;53.716;19.940;2024-03-29T13:35:46;99198.45;;;17.45;46.49
57900;BME280;60605;53.716;19.940;2024-03-29T13:40:49;99190.86;;;17.34;46.18
57900;BME280;60605;53.716;19.940;2024-03-29T13:45:53;99197.77;;;17.27;46.49
57900;BME280;60605;53.716;19.940;2024-03-29T13:50:56;99195.48;;;17.28;46.93
57900;BME280;60605;53.716;19.940;2024-03-29T13:55:59;99187.28;;;17.39;47.71
57900;BME280;60605;53.716;19.940;2024-03-29T14:01:03;99187.11;;;17.47;47.17
57900;BME280;60605;53.716;19.940;2024-03-29T14:06:07;99190.42;;;17.43;46.13
57900;BME280;60605;53.716;19.940;2024-03-29T14:11:10;99201.16;;;17.15;46.45
57900;BME280;60605;53.716;19.940;2024-03-29T14:16:14;99208.89;;;16.88;47.32
57900;BME280;60605;53.716;19.940;2024-03-29T14:21:18;99206.70;;;16.74;48.05
57900;BME280;60605;53.716;19.940;2024-03-29T14:26:21;99213.52;;;16.68;48.16
57900;BME280;60605;53.716;19.940;2024-03-29T14:31:24;99222.36;;;16.66;48.14
57900;BME280;60605;53.716;19.940;2024-03-29T14:36:28;99223.13;;;16.75;47.43
57900;BME280;60605;53.716;19.940;2024-03-29T14:41:35;99222.86;;;16.85;47.61
57900;BME280;60605;53.716;19.940;2024-03-29T14:46:40;99222.77;;;16.90;47.87
57900;BME280;60605;53.716;19.940;2024-03-29T14:51:44;99218.12;;;16.90;47.81
57900;BME280;60605;53.716;19.940;2024-03-29T14:56:48;99215.47;;;16.87;47.37
57900;BME280;60605;53.716;19.940;2024-03-29T15:01:51;99218.63;;;16.75;46.98
57900;BME280;60605;53.716;19.940;2024-03-29T15:06:55;99209.73;;;16.60;47.60
57900;BME280;60605;53.716;19.940;2024-03-29T15:11:59;99200.30;;;16.49;47.83
57900;BME280;60605;53.716;19.940;2024-03-29T15:17:03;99193.80;;;16.40;47.74
57900;BME280;60605;53.716;19.940;2024-03-29T15:22:07;99187.47;;;16.30;47.75
57900;BME280;60605;53.716;19.940;2024-03-29T15:27:14;99197.38;;;16.21;47.88
57900;BME280;60605;53.716;19.940;2024-03-29T15:32:38;99194.52;;;16.13;48.95
57900;BME280;60605;53.716;19.940;2024-03-29T15:37:42;99196.63;;;16.10;49.47
57900;BME280;60605;53.716;19.940;2024-03-29T15:42:45;99199.74;;;16.10;49.81
57900;BME280;60605;53.716;19.940;2024-03-29T15:47:49;99193.96;;;16.10;50.30
57900;BME280;60605;53.716;19.940;2024-03-29T15:52:55;99188.09;;;16.04;50.08
57900;BME280;60605;53.716;19.940;2024-03-29T15:58:11;99183.30;;;15.97;49.46
57900;BME280;60605;53.716;19.940;2024-03-29T16:03:15;99192.36;;;15.93;49.40
57900;BME280;60605;53.716;19.940;2024-03-29T16:08:20;99178.42;;;15.86;49.60
57900;BME280;60605;53.716;19.940;2024-03-29T16:13:28;99154.64;;;15.76;50.03
57900;BME280;60605;53.716;19.940;2024-03-29T16:18:32;99148.69;;;15.67;50.04
57900;BME280;60605;53.716;19.940;2024-03-29T16:23:36;99151.50;;;15.54;50.48
57900;BME280;60605;53.716;19.940;2024-03-29T16:28:40;99147.48;;;15.38;50.67
57900;BME280;60605;53.716;19.940;2024-03-29T16:33:44;99164.55;;;15.19;51.02
57900;BME280;60605;53.716;19.940;2024-03-29T16:38:50;99157.64;;;15.00;51.72
57900;BME280;60605;53.716;19.940;2024-03-29T16:43:55;99145.27;;;14.81;52.21
57900;BME280;60605;53.716;19.940;2024-03-29T16:48:59;99150.69;;;14.64;52.54
57900;BME280;60605;53.716;19.940;2024-03-29T16:54:04;99147.14;;;14.48;52.86
57900;BME280;60605;53.716;19.940;2024-03-29T16:59:08;99145.09;;;14.37;53.13
57900;BME280;60605;53.716;19.940;2024-03-29T17:04:11;99143.77;;;14.26;53.44
57900;BME280;60605;53.716;19.940;2024-03-29T17:09:34;99146.65;;;14.17;53.71
57900;BME280;60605;53.716;19.940;2024-03-29T17:14:48;99141.58;;;14.07;53.92
57900;BME280;60605;53.716;19.940;2024-03-29T17:20:04;99140.26;;;13.97;54.10
57900;BME280;60605;53.716;19.940;2024-03-29T17:25:12;99140.66;;;13.87;54.41
57900;BME280;60605;53.716;19.940;2024-03-29T17:30:17;99136.69;;;13.80;54.61
57900;BME280;60605;53.716;19.940;2024-03-29T17:35:21;99132.70;;;13.75;54.69
57900;BME280;60605;53.716;19.940;2024-03-29T17:40:28;99142.32;;;13.71;54.68
57900;BME280;60605;53.716;19.940;2024-03-29T17:45:31;99143.41;;;13.67;54.63
57900;BME280;60605;53.716;19.940;2024-03-29T17:50:35;99145.30;;;13.62;54.63
57900;BME280;60605;53.716;19.940;2024-03-29T17:55:42;99152.34;;;13.55;54.72
57900;BME280;60605;53.716;19.940;2024-03-29T18:00:48;99157.82;;;13.49;54.88
57900;BME280;60605;53.716;19.940;2024-03-29T18:05:53;99154.34;;;13.48;54.97
57900;BME280;60605;53.716;19.940;2024-03-29T18:10:56;99163.20;;;13.47;54.99
57900;BME280;60605;53.716;19.940;2024-03-29T18:16:00;99150.43;;;13.46;55.06
57900;BME280;60605;53.716;19.940;2024-03-29T18:21:06;99137.98;;;13.42;55.25
57900;BME280;60605;53.716;19.940;2024-03-29T18:26:12;99123.09;;;13.37;55.34
57900;BME280;60605;53.716;19.940;2024-03-29T18:31:17;99116.36;;;13.34;55.26
57900;BME280;60605;53.716;19.940;2024-03-29T18:36:21;99129.17;;;13.28;55.09
57900;BME280;60605;53.716;19.940;2024-03-29T18:41:24;99140.03;;;13.25;55.05
57900;BME280;60605;53.716;19.940;2024-03-29T18:46:31;99139.98;;;13.24;55.24
57900;BME280;60605;53.716;19.940;2024-03-29T18:51:37;99143.20;;;13.22;55.38
57900;BME280;60605;53.716;19.940;2024-03-29T18:56:41;99154.34;;;13.18;55.53
57900;BME280;60605;53.716;19.940;2024-03-29T19:01:44;99165.20;;;13.16;55.45
57900;BME280;60605;53.716;19.940;2024-03-29T19:06:51;99168.64;;;13.16;55.26
57900;BME280;60605;53.716;19.940;2024-03-29T19:11:54;99160.94;;;13.15;54.85
57900;BME280;60605;53.716;19.940;2024-03-29T19:17:01;99153.44;;;13.18;54.48
57900;BME280;60605;53.716;19.940;2024-03-29T19:22:13;99134.39;;;13.22;54.06
57900;BME280;60605;53.716;19.940;2024-03-29T19:27:25;99123.39;;;13.25;54.05
57900;BME280;60605;53.716;19.940;2024-03-29T19:32:32;99129.19;;;13.25;53.81
57900;BME280;60605;53.716;19.940;2024-03-29T19:37:55;99126.66;;;13.25;53.77
57900;BME280;60605;53.716;19.940;2024-03-29T19:43:30;99124.69;;;13.27;53.91
57900;BME280;60605;53.716;19.940;2024-03-29T19:49:20;99136.81;;;13.26;54.19
57900;BME280;60605;53.716;19.940;2024-03-29T19:55:32;99125.66;;;13.23;54.35
57900;BME280;60605;53.716;19.940;2024-03-29T20:01:34;99125.98;;;13.21;54.50
57900;BME280;60605;53.716;19.940;2024-03-29T20:07:18;99123.19;;;13.18;54.65
57900;BME280;60605;53.716;19.940;2024-03-29T20:13:23;99123.84;;;13.17;54.64
57900;BME280;60605;53.716;19.940;2024-03-29T20:19:01;99113.04;;;13.16;54.60
57900;BME280;60605;53.716;19.940;2024-03-29T20:24:44;99106.48;;;13.16;54.67
57900;BME280;60605;53.716;19.940;2024-03-29T20:29:58;99103.98;;;13.18;54.81
57900;BME280;60605;53.716;19.940;2024-03-29T20:35:28;99098.85;;;13.19;54.76
57900;BME280;60605;53.716;19.940;2024-03-29T20:40:48;99088.14;;;13.20;54.87
57900;BME280;60605;53.716;19.940;2024-03-29T20:46:00;99093.23;;;13.22;54.83
57900;BME280;60605;53.716;19.940;2024-03-29T20:51:05;99100.86;;;13.22;55.02
57900;BME280;60605;53.716;19.940;2024-03-29T20:56:09;99098.59;;;13.22;54.88
57900;BME280;60605;53.716;19.940;2024-03-29T21:01:15;99106.23;;;13.21;55.16
57900;BME280;60605;53.716;19.940;2024-03-29T21:06:40;99103.53;;;13.21;55.25
57900;BME280;60605;53.716;19.940;2024-03-29T21:11:45;99112.36;;;13.22;55.53
57900;BME280;60605;53.716;19.940;2024-03-29T21:16:50;99110.14;;;13.24;55.54
57900;BME280;60605;53.716;19.940;2024-03-29T21:21:54;99116.96;;;13.29;55.52
57900;BME280;60605;53.716;19.940;2024-03-29T21:27:00;99116.04;;;13.35;55.36
57900;BME280;60605;53.716;19.940;2024-03-29T21:32:06;99113.05;;;13.42;55.31
57900;BME280;60605;53.716;19.940;2024-03-29T21:37:20;99117.80;;;13.46;55.25
57900;BME280;60605;53.716;19.940;2024-03-29T21:49:46;99129.87;;;13.64;55.19
57900;BME280;60605;53.716;19.940;2024-03-29T21:54:52;99130.77;;;13.70;55.34
57900;BME280;60605;53.716;19.940;2024-03-29T22:00:17;99133.52;;;13.76;55.43
57900;BME280;60605;53.716;19.940;2024-03-29T22:05:57;99140.46;;;13.81;55.82
57900;BME280;60605;53.716;19.940;2024-03-29T22:11:02;99151.86;;;13.83;55.97
57900;BME280;60605;53.716;19.940;2024-03-29T22:16:08;99156.39;;;13.83;56.42
57900;BME280;60605;53.716;19.940;2024-03-29T22:21:15;99151.69;;;13.81;56.57
57900;BME280;60605;53.716;19.940;2024-03-29T22:26:19;99141.87;;;13.81;56.65
57900;BME280;60605;53.716;19.940;2024-03-29T22:31:23;99140.87;;;13.79;57.00
57900;BME280;60605;53.716;19.940;2024-03-29T22:36:31;99139.10;;;13.74;57.50
57900;BME280;60605;53.716;19.940;2024-03-29T22:41:35;99135.01;;;13.65;58.22
57900;BME280;60605;53.716;19.940;2024-03-29T22:46:39;99133.31;;;13.57;58.86
57900;BME280;60605;53.716;19.940;2024-03-29T22:51:44;99128.58;;;13.47;59.40
57900;BME280;60605;53.716;19.940;2024-03-29T22:56:51;99134.10;;;13.35;60.03
57900;BME280;60605;53.716;19.940;2024-03-29T23:01:57;99137.79;;;13.22;61.06
57900;BME280;60605;53.716;19.940;2024-03-29T23:07:01;99133.53;;;13.14;61.76
57900;BME280;60605;53.716;19.940;2024-03-29T23:12:05;99137.38;;;13.05;62.27
57900;BME280;60605;53.716;19.940;2024-03-29T23:17:16;99142.92;;;12.95;62.86
57900;BME280;60605;53.716;19.940;2024-03-29T23:22:23;99133.16;;;12.85;63.66
57900;BME280;60605;53.716;19.940;2024-03-29T23:27:26;99136.35;;;12.75;64.10
57900;BME280;60605;53.716;19.940;2024-03-29T23:32:31;99136.95;;;12.65;64.82
57900;BME280;60605;53.716;19.940;2024-03-29T23:37:34;99147.38;;;12.57;65.89
57900;BME280;60605;53.716;19.940;2024-03-29T23:42:37;99158.43;;;12.50;66.74
57900;BME280;60605;53.716;19.940;2024-03-29T23:47:41;99158.11;;;12.47;67.34
57900;BME280;60605;53.716;19.940;2024-03-29T23:52:44;99154.21;;;12.44;68.04
57900;BME280;60605;53.716;19.940;2024-03-29T23:57:48;99142.88;;;12.39;68.98
